sensor_id;sensor_type;location;lat;lon;timestamp;P1;durP1;ratioP1;P2;durP2;ratioP2
79361;SDS011;68830;47.566;19.012;2023-04-24T00:00:23;0.50;;;0.50;;
79361;SDS011;68830;47.566;19.012;2023-04-24T00:03:25;0.40;;;0.40;;
79361;SDS011;68830;47.566;19.012;2023-04-24T00:06:29;0.22;;;0.22;;
79361;SDS011;68830;47.566;19.012;2023-04-24T00:09:38;0.38;;;0.38;;
79361;SDS011;68830;47.566;19.012;2023-04-24T00:12:41;0.35;;;0.35;;
79361;SDS011;68830;47.566;19.012;2023-04-24T00:15:43;0.50;;;0.50;;
79361;SDS011;68830;47.566;19.012;2023-04-24T00:18:44;0.40;;;0.40;;
79361;SDS011;68830;47.566;19.012;2023-04-24T00:21:48;0.22;;;0.22;;
79361;SDS011;68830;47.566;19.012;2023-04-24T00:24:52;0.32;;;0.32;;
79361;SDS011;68830;47.566;19.012;2023-04-24T00:27:54;0.40;;;0.40;;
79361;SDS011;68830;47.566;19.012;2023-04-24T00:30:56;0.32;;;0.32;;
79361;SDS011;68830;47.566;19.012;2023-04-24T00:33:58;0.30;;;0.30;;
79361;SDS011;68830;47.566;19.012;2023-04-24T00:37:02;0.40;;;0.40;;
79361;SDS011;68830;47.566;19.012;2023-04-24T00:40:04;0.60;;;0.43;;
79361;SDS011;68830;47.566;19.012;2023-04-24T00:43:08;0.45;;;0.45;;
79361;SDS011;68830;47.566;19.012;2023-04-24T00:46:11;0.40;;;0.40;;
79361;SDS011;68830;47.566;19.012;2023-04-24T00:49:13;0.17;;;0.17;;
79361;SDS011;68830;47.566;19.012;2023-04-24T00:52:16;0.30;;;0.30;;
79361;SDS011;68830;47.566;19.012;2023-04-24T00:55:22;0.45;;;0.43;;
79361;SDS011;68830;47.566;19.012;2023-04-24T00:58:26;0.30;;;0.30;;
79361;SDS011;68830;47.566;19.012;2023-04-24T01:01:28;0.32;;;0.32;;
79361;SDS011;68830;47.566;19.012;2023-04-24T01:04:31;0.40;;;0.40;;
79361;SDS011;68830;47.566;19.012;2023-04-24T01:07:35;0.30;;;0.30;;
79361;SDS011;68830;47.566;19.012;2023-04-24T01:10:38;0.50;;;0.50;;
79361;SDS011;68830;47.566;19.012;2023-04-24T01:13:42;0.35;;;0.35;;
79361;SDS011;68830;47.566;19.012;2023-04-24T01:16:44;0.40;;;0.40;;
79361;SDS011;68830;47.566;19.012;2023-04-24T01:19:46;0.30;;;0.30;;
79361;SDS011;68830;47.566;19.012;2023-04-24T01:22:50;0.40;;;0.40;;
79361;SDS011;68830;47.566;19.012;2023-04-24T01:25:52;0.30;;;0.30;;
79361;SDS011;68830;47.566;19.012;2023-04-24T01:28:54;0.60;;;0.60;;
79361;SDS011;68830;47.566;19.012;2023-04-24T01:31:57;0.25;;;0.25;;
79361;SDS011;68830;47.566;19.012;2023-04-24T01:34:59;0.50;;;0.50;;
79361;SDS011;68830;47.566;19.012;2023-04-24T01:38:04;0.40;;;0.40;;
79361;SDS011;68830;47.566;19.012;2023-04-24T01:41:06;0.50;;;0.50;;
79361;SDS011;68830;47.566;19.012;2023-04-24T01:44:08;0.65;;;0.40;;
79361;SDS011;68830;47.566;19.012;2023-04-24T01:47:11;0.40;;;0.40;;
79361;SDS011;68830;47.566;19.012;2023-04-24T01:50:13;0.40;;;0.40;;
79361;SDS011;68830;47.566;19.012;2023-04-24T01:53:17;0.40;;;0.40;;
79361;SDS011;68830;47.566;19.012;2023-04-24T01:56:19;0.30;;;0.30;;
79361;SDS011;68830;47.566;19.012;2023-04-24T01:59:21;0.50;;;0.50;;
79361;SDS011;68830;47.566;19.012;2023-04-24T02:02:25;0.30;;;0.30;;
79361;SDS011;68830;47.566;19.012;2023-04-24T02:05:29;0.30;;;0.30;;
79361;SDS011;68830;47.566;19.012;2023-04-24T02:08:33;0.25;;;0.25;;
79361;SDS011;68830;47.566;19.012;2023-04-24T02:11:34;0.30;;;0.30;;
79361;SDS011;68830;47.566;19.012;2023-04-24T02:14:36;0.25;;;0.25;;
79361;SDS011;68830;47.566;19.012;2023-04-24T02:17:38;0.30;;;0.30;;
79361;SDS011;68830;47.566;19.012;2023-04-24T02:20:40;0.10;;;0.10;;
79361;SDS011;68830;47.566;19.012;2023-04-24T02:23:44;0.50;;;0.50;;
79361;SDS011;68830;47.566;19.012;2023-04-24T02:26:46;0.20;;;0.20;;
79361;SDS011;68830;47.566;19.012;2023-04-24T02:29:48;0.32;;;0.32;;
79361;SDS011;68830;47.566;19.012;2023-04-24T02:32:50;0.40;;;0.40;;
79361;SDS011;68830;47.566;19.012;2023-04-24T02:35:52;0.50;;;0.50;;
79361;SDS011;68830;47.566;19.012;2023-04-24T02:38:56;0.55;;;0.30;;
79361;SDS011;68830;47.566;19.012;2023-04-24T02:41:58;0.30;;;0.30;;
79361;SDS011;68830;47.566;19.012;2023-04-24T02:45:01;0.35;;;0.35;;
79361;SDS011;68830;47.566;19.012;2023-04-24T02:48:03;0.28;;;0.28;;
79361;SDS011;68830;47.566;19.012;2023-04-24T02:51:05;0.43;;;0.43;;
79361;SDS011;68830;47.566;19.012;2023-04-24T02:54:09;0.32;;;0.32;;
79361;SDS011;68830;47.566;19.012;2023-04-24T02:57:12;0.35;;;0.35;;
79361;SDS011;68830;47.566;19.012;2023-04-24T03:00:14;0.57;;;0.50;;
79361;SDS011;68830;47.566;19.012;2023-04-24T03:03:16;0.40;;;0.40;;
79361;SDS011;68830;47.566;19.012;2023-04-24T03:06:19;0.60;;;0.60;;
79361;SDS011;68830;47.566;19.012;2023-04-24T03:09:24;0.22;;;0.22;;
79361;SDS011;68830;47.566;19.012;2023-04-24T03:12:26;0.40;;;0.40;;
79361;SDS011;68830;47.566;19.012;2023-04-24T03:15:29;0.22;;;0.22;;
79361;SDS011;68830;47.566;19.012;2023-04-24T03:18:31;0.32;;;0.32;;
79361;SDS011;68830;47.566;19.012;2023-04-24T03:21:33;0.30;;;0.30;;
79361;SDS011;68830;47.566;19.012;2023-04-24T03:24:36;0.30;;;0.30;;
79361;SDS011;68830;47.566;19.012;2023-04-24T03:27:38;0.20;;;0.20;;
79361;SDS011;68830;47.566;19.012;2023-04-24T03:30:41;0.30;;;0.30;;
79361;SDS011;68830;47.566;19.012;2023-04-24T03:33:43;0.40;;;0.40;;
79361;SDS011;68830;47.566;19.012;2023-04-24T03:36:45;0.40;;;0.38;;
79361;SDS011;68830;47.566;19.012;2023-04-24T03:39:50;0.30;;;0.30;;
79361;SDS011;68830;47.566;19.012;2023-04-24T03:42:52;0.50;;;0.50;;
79361;SDS011;68830;47.566;19.012;2023-04-24T03:45:55;0.25;;;0.25;;
79361;SDS011;68830;47.566;19.012;2023-04-24T03:48:57;0.40;;;0.40;;
79361;SDS011;68830;47.566;19.012;2023-04-24T03:51:59;0.22;;;0.22;;
79361;SDS011;68830;47.566;19.012;2023-04-24T03:55:02;0.43;;;0.43;;
79361;SDS011;68830;47.566;19.012;2023-04-24T03:58:05;0.55;;;0.45;;
79361;SDS011;68830;47.566;19.012;2023-04-24T04:01:07;0.20;;;0.20;;
79361;SDS011;68830;47.566;19.012;2023-04-24T04:04:09;0.30;;;0.30;;
79361;SDS011;68830;47.566;19.012;2023-04-24T04:07:11;0.35;;;0.35;;
79361;SDS011;68830;47.566;19.012;2023-04-24T04:10:15;0.17;;;0.17;;
79361;SDS011;68830;47.566;19.012;2023-04-24T04:13:18;0.22;;;0.22;;
79361;SDS011;68830;47.566;19.012;2023-04-24T04:16:20;0.50;;;0.50;;
79361;SDS011;68830;47.566;19.012;2023-04-24T04:19:22;0.40;;;0.40;;
79361;SDS011;68830;47.566;19.012;2023-04-24T04:22:24;0.45;;;0.45;;
79361;SDS011;68830;47.566;19.012;2023-04-24T04:25:28;0.50;;;0.50;;
79361;SDS011;68830;47.566;19.012;2023-04-24T04:28:30;0.70;;;0.70;;
79361;SDS011;68830;47.566;19.012;2023-04-24T04:31:33;0.80;;;0.80;;
79361;SDS011;68830;47.566;19.012;2023-04-24T04:34:35;0.52;;;0.52;;
79361;SDS011;68830;47.566;19.012;2023-04-24T04:37:39;0.25;;;0.25;;
79361;SDS011;68830;47.566;19.012;2023-04-24T04:40:43;0.40;;;0.40;;
79361;SDS011;68830;47.566;19.012;2023-04-24T04:43:45;0.38;;;0.38;;
79361;SDS011;68830;47.566;19.012;2023-04-24T04:46:49;0.60;;;0.60;;
79361;SDS011;68830;47.566;19.012;2023-04-24T04:49:51;0.95;;;0.57;;
79361;SDS011;68830;47.566;19.012;2023-04-24T04:52:53;0.52;;;0.50;;
79361;SDS011;68830;47.566;19.012;2023-04-24T04:55:56;0.45;;;0.45;;
79361;SDS011;68830;47.566;19.012;2023-04-24T04:58:58;0.50;;;0.50;;
79361;SDS011;68830;47.566;19.012;2023-04-24T05:02:01;0.30;;;0.30;;
79361;SDS011;68830;47.566;19.012;2023-04-24T05:05:03;0.32;;;0.32;;
79361;SDS011;68830;47.566;19.012;2023-04-24T05:08:06;0.47;;;0.47;;
79361;SDS011;68830;47.566;19.012;2023-04-24T05:11:22;0.40;;;0.40;;
79361;SDS011;68830;47.566;19.012;2023-04-24T05:14:24;0.50;;;0.50;;
79361;SDS011;68830;47.566;19.012;2023-04-24T05:17:26;0.28;;;0.28;;
79361;SDS011;68830;47.566;19.012;2023-04-24T05:20:28;0.40;;;0.40;;
79361;SDS011;68830;47.566;19.012;2023-04-24T05:23:30;0.60;;;0.60;;
79361;SDS011;68830;47.566;19.012;2023-04-24T05:26:33;0.57;;;0.57;;
79361;SDS011;68830;47.566;19.012;2023-04-24T05:29:37;0.30;;;0.30;;
79361;SDS011;68830;47.566;19.012;2023-04-24T05:32:39;0.70;;;0.52;;
79361;SDS011;68830;47.566;19.012;2023-04-24T05:35:41;0.35;;;0.35;;
79361;SDS011;68830;47.566;19.012;2023-04-24T05:38:49;0.73;;;0.73;;
79361;SDS011;68830;47.566;19.012;2023-04-24T05:41:53;0.50;;;0.50;;
79361;SDS011;68830;47.566;19.012;2023-04-24T05:44:55;0.90;;;0.90;;
79361;SDS011;68830;47.566;19.012;2023-04-24T05:47:59;0.60;;;0.60;;
79361;SDS011;68830;47.566;19.012;2023-04-24T05:51:00;0.80;;;0.50;;
79361;SDS011;68830;47.566;19.012;2023-04-24T05:54:03;0.40;;;0.40;;
79361;SDS011;68830;47.566;19.012;2023-04-24T05:57:06;0.60;;;0.60;;
79361;SDS011;68830;47.566;19.012;2023-04-24T06:00:09;0.50;;;0.50;;
79361;SDS011;68830;47.566;19.012;2023-04-24T06:03:14;0.50;;;0.50;;
79361;SDS011;68830;47.566;19.012;2023-04-24T06:06:16;0.50;;;0.50;;
79361;SDS011;68830;47.566;19.012;2023-04-24T06:09:19;0.90;;;0.60;;
79361;SDS011;68830;47.566;19.012;2023-04-24T06:12:22;0.70;;;0.70;;
79361;SDS011;68830;47.566;19.012;2023-04-24T06:15:25;0.50;;;0.50;;
79361;SDS011;68830;47.566;19.012;2023-04-24T06:18:27;0.38;;;0.30;;
79361;SDS011;68830;47.566;19.012;2023-04-24T06:21:30;0.60;;;0.60;;
79361;SDS011;68830;47.566;19.012;2023-04-24T06:24:33;0.52;;;0.52;;
79361;SDS011;68830;47.566;19.012;2023-04-24T06:27:37;0.43;;;0.30;;
79361;SDS011;68830;47.566;19.012;2023-04-24T06:30:40;0.50;;;0.50;;
79361;SDS011;68830;47.566;19.012;2023-04-24T06:33:42;0.40;;;0.40;;
79361;SDS011;68830;47.566;19.012;2023-04-24T06:36:46;0.60;;;0.60;;
79361;SDS011;68830;47.566;19.012;2023-04-24T06:39:48;0.70;;;0.70;;
79361;SDS011;68830;47.566;19.012;2023-04-24T06:42:51;0.65;;;0.40;;
79361;SDS011;68830;47.566;19.012;2023-04-24T06:45:53;0.30;;;0.30;;
79361;SDS011;68830;47.566;19.012;2023-04-24T06:48:55;0.55;;;0.55;;
79361;SDS011;68830;47.566;19.012;2023-04-24T06:51:57;0.40;;;0.40;;
79361;SDS011;68830;47.566;19.012;2023-04-24T06:55:00;0.60;;;0.60;;
79361;SDS011;68830;47.566;19.012;2023-04-24T06:58:03;0.40;;;0.40;;
79361;SDS011;68830;47.566;19.012;2023-04-24T07:01:06;0.40;;;0.40;;
79361;SDS011;68830;47.566;19.012;2023-04-24T07:04:08;0.30;;;0.30;;
79361;SDS011;68830;47.566;19.012;2023-04-24T07:07:12;0.40;;;0.40;;
79361;SDS011;68830;47.566;19.012;2023-04-24T07:10:15;0.70;;;0.70;;
79361;SDS011;68830;47.566;19.012;2023-04-24T07:13:19;0.47;;;0.47;;
79361;SDS011;68830;47.566;19.012;2023-04-24T07:16:21;0.57;;;0.40;;
79361;SDS011;68830;47.566;19.012;2023-04-24T07:19:23;0.82;;;0.75;;
79361;SDS011;68830;47.566;19.012;2023-04-24T07:22:25;0.45;;;0.45;;
79361;SDS011;68830;47.566;19.012;2023-04-24T07:25:27;0.57;;;0.57;;
79361;SDS011;68830;47.566;19.012;2023-04-24T07:28:31;0.40;;;0.40;;
79361;SDS011;68830;47.566;19.012;2023-04-24T07:31:33;0.45;;;0.45;;
79361;SDS011;68830;47.566;19.012;2023-04-24T07:34:35;0.47;;;0.47;;
79361;SDS011;68830;47.566;19.012;2023-04-24T07:37:37;0.40;;;0.40;;
79361;SDS011;68830;47.566;19.012;2023-04-24T07:40:39;0.40;;;0.40;;
79361;SDS011;68830;47.566;19.012;2023-04-24T07:43:42;0.52;;;0.52;;
79361;SDS011;68830;47.566;19.012;2023-04-24T07:46:45;0.32;;;0.32;;
79361;SDS011;68830;47.566;19.012;2023-04-24T07:49:48;0.50;;;0.50;;
79361;SDS011;68830;47.566;19.012;2023-04-24T07:52:50;0.65;;;0.57;;
79361;SDS011;68830;47.566;19.012;2023-04-24T07:55:53;0.43;;;0.43;;
79361;SDS011;68830;47.566;19.012;2023-04-24T07:58:57;0.32;;;0.32;;
79361;SDS011;68830;47.566;19.012;2023-04-24T08:01:59;0.40;;;0.40;;
79361;SDS011;68830;47.566;19.012;2023-04-24T08:05:02;1.38;;;0.65;;
79361;SDS011;68830;47.566;19.012;2023-04-24T08:08:05;0.30;;;0.30;;
79361;SDS011;68830;47.566;19.012;2023-04-24T08:11:07;0.50;;;0.50;;
79361;SDS011;68830;47.566;19.012;2023-04-24T08:14:11;0.40;;;0.40;;
79361;SDS011;68830;47.566;19.012;2023-04-24T08:17:14;0.50;;;0.50;;
79361;SDS011;68830;47.566;19.012;2023-04-24T08:20:17;0.40;;;0.40;;
79361;SDS011;68830;47.566;19.012;2023-04-24T08:23:19;0.50;;;0.50;;
79361;SDS011;68830;47.566;19.012;2023-04-24T08:26:21;0.32;;;0.32;;
79361;SDS011;68830;47.566;19.012;2023-04-24T08:29:25;0.50;;;0.50;;
79361;SDS011;68830;47.566;19.012;2023-04-24T08:32:28;0.30;;;0.30;;
79361;SDS011;68830;47.566;19.012;2023-04-24T08:35:30;0.32;;;0.32;;
79361;SDS011;68830;47.566;19.012;2023-04-24T08:38:33;0.60;;;0.60;;
79361;SDS011;68830;47.566;19.012;2023-04-24T08:41:35;0.40;;;0.40;;
79361;SDS011;68830;47.566;19.012;2023-04-24T08:44:40;0.30;;;0.30;;
79361;SDS011;68830;47.566;19.012;2023-04-24T08:47:42;0.40;;;0.40;;
79361;SDS011;68830;47.566;19.012;2023-04-24T08:50:45;0.73;;;0.45;;
79361;SDS011;68830;47.566;19.012;2023-04-24T08:53:49;0.45;;;0.45;;
79361;SDS011;68830;47.566;19.012;2023-04-24T09:00:01;0.50;;;0.50;;
79361;SDS011;68830;47.566;19.012;2023-04-24T09:03:04;0.28;;;0.28;;
79361;SDS011;68830;47.566;19.012;2023-04-24T09:06:07;0.40;;;0.40;;
79361;SDS011;68830;47.566;19.012;2023-04-24T09:09:11;0.30;;;0.30;;
79361;SDS011;68830;47.566;19.012;2023-04-24T09:12:13;0.60;;;0.60;;
79361;SDS011;68830;47.566;19.012;2023-04-24T09:15:18;0.30;;;0.30;;
79361;SDS011;68830;47.566;19.012;2023-04-24T09:18:19;0.50;;;0.50;;
79361;SDS011;68830;47.566;19.012;2023-04-24T09:21:22;0.45;;;0.45;;
79361;SDS011;68830;47.566;19.012;2023-04-24T09:24:24;0.35;;;0.35;;
79361;SDS011;68830;47.566;19.012;2023-04-24T09:27:27;0.38;;;0.38;;
79361;SDS011;68830;47.566;19.012;2023-04-24T09:30:31;0.55;;;0.45;;
79361;SDS011;68830;47.566;19.012;2023-04-24T09:33:33;0.30;;;0.30;;
79361;SDS011;68830;47.566;19.012;2023-04-24T09:36:37;0.22;;;0.22;;
79361;SDS011;68830;47.566;19.012;2023-04-24T09:39:39;0.30;;;0.30;;
79361;SDS011;68830;47.566;19.012;2023-04-24T09:42:46;0.30;;;0.30;;
79361;SDS011;68830;47.566;19.012;2023-04-24T09:45:56;0.40;;;0.40;;
79361;SDS011;68830;47.566;19.012;2023-04-24T09:49:06;0.30;;;0.30;;
79361;SDS011;68830;47.566;19.012;2023-04-24T09:52:10;0.38;;;0.38;;
79361;SDS011;68830;47.566;19.012;2023-04-24T09:55:16;0.40;;;0.40;;
79361;SDS011;68830;47.566;19.012;2023-04-24T09:58:24;0.40;;;0.40;;
79361;SDS011;68830;47.566;19.012;2023-04-24T10:01:32;0.40;;;0.40;;
79361;SDS011;68830;47.566;19.012;2023-04-24T10:04:34;0.50;;;0.43;;
79361;SDS011;68830;47.566;19.012;2023-04-24T10:07:37;0.57;;;0.55;;
79361;SDS011;68830;47.566;19.012;2023-04-24T10:10:40;0.30;;;0.30;;
79361;SDS011;68830;47.566;19.012;2023-04-24T10:13:44;0.35;;;0.35;;
79361;SDS011;68830;47.566;19.012;2023-04-24T10:16:48;0.40;;;0.40;;
79361;SDS011;68830;47.566;19.012;2023-04-24T10:19:51;0.20;;;0.20;;
79361;SDS011;68830;47.566;19.012;2023-04-24T10:22:54;0.40;;;0.40;;
79361;SDS011;68830;47.566;19.012;2023-04-24T10:25:57;0.40;;;0.40;;
79361;SDS011;68830;47.566;19.012;2023-04-24T10:29:02;0.43;;;0.43;;
79361;SDS011;68830;47.566;19.012;2023-04-24T10:32:12;0.50;;;0.50;;
79361;SDS011;68830;47.566;19.012;2023-04-24T10:35:14;0.60;;;0.60;;
79361;SDS011;68830;47.566;19.012;2023-04-24T10:38:22;0.68;;;0.47;;
79361;SDS011;68830;47.566;19.012;2023-04-24T10:41:26;0.70;;;0.68;;
79361;SDS011;68830;47.566;19.012;2023-04-24T10:44:35;0.60;;;0.60;;
79361;SDS011;68830;47.566;19.012;2023-04-24T10:47:42;0.47;;;0.47;;
79361;SDS011;68830;47.566;19.012;2023-04-24T10:50:45;0.60;;;0.60;;
79361;SDS011;68830;47.566;19.012;2023-04-24T10:53:49;0.80;;;0.80;;
79361;SDS011;68830;47.566;19.012;2023-04-24T10:56:52;0.77;;;0.77;;
79361;SDS011;68830;47.566;19.012;2023-04-24T11:00:09;0.47;;;0.47;;
79361;SDS011;68830;47.566;19.012;2023-04-24T11:03:26;0.65;;;0.65;;
79361;SDS011;68830;47.566;19.012;2023-04-24T11:06:30;0.90;;;0.90;;
79361;SDS011;68830;47.566;19.012;2023-04-24T11:09:34;1.02;;;1.02;;
79361;SDS011;68830;47.566;19.012;2023-04-24T11:12:37;1.13;;;1.10;;
79361;SDS011;68830;47.566;19.012;2023-04-24T11:15:41;1.88;;;1.00;;
79361;SDS011;68830;47.566;19.012;2023-04-24T11:18:45;1.30;;;1.20;;
79361;SDS011;68830;47.566;19.012;2023-04-24T11:21:48;1.10;;;1.10;;
79361;SDS011;68830;47.566;19.012;2023-04-24T11:24:56;1.48;;;1.30;;
79361;SDS011;68830;47.566;19.012;2023-04-24T11:28:03;1.27;;;1.17;;
79361;SDS011;68830;47.566;19.012;2023-04-24T11:34:38;1.27;;;1.17;;
79361;SDS011;68830;47.566;19.012;2023-04-24T11:37:42;1.60;;;1.00;;
79361;SDS011;68830;47.566;19.012;2023-04-24T11:40:44;0.85;;;0.85;;
79361;SDS011;68830;47.566;19.012;2023-04-24T11:43:48;0.98;;;0.98;;
79361;SDS011;68830;47.566;19.012;2023-04-24T11:46:50;0.80;;;0.80;;
79361;SDS011;68830;47.566;19.012;2023-04-24T11:49:54;1.23;;;1.13;;
79361;SDS011;68830;47.566;19.012;2023-04-24T11:52:56;1.00;;;1.00;;
79361;SDS011;68830;47.566;19.012;2023-04-24T11:56:02;1.00;;;1.00;;
79361;SDS011;68830;47.566;19.012;2023-04-24T11:59:04;1.27;;;1.17;;
79361;SDS011;68830;47.566;19.012;2023-04-24T12:02:06;1.27;;;1.10;;
79361;SDS011;68830;47.566;19.012;2023-04-24T12:05:12;0.70;;;0.70;;
79361;SDS011;68830;47.566;19.012;2023-04-24T12:08:27;1.15;;;1.10;;
79361;SDS011;68830;47.566;19.012;2023-04-24T12:11:30;0.93;;;0.93;;
79361;SDS011;68830;47.566;19.012;2023-04-24T12:14:32;1.80;;;1.02;;
79361;SDS011;68830;47.566;19.012;2023-04-24T12:17:34;0.68;;;0.68;;
79361;SDS011;68830;47.566;19.012;2023-04-24T12:20:40;1.05;;;0.98;;
79361;SDS011;68830;47.566;19.012;2023-04-24T12:23:42;0.80;;;0.80;;
79361;SDS011;68830;47.566;19.012;2023-04-24T12:26:45;1.30;;;1.15;;
79361;SDS011;68830;47.566;19.012;2023-04-24T12:29:51;1.38;;;1.13;;
79361;SDS011;68830;47.566;19.012;2023-04-24T12:32:53;1.10;;;1.10;;
79361;SDS011;68830;47.566;19.012;2023-04-24T12:35:57;0.90;;;0.90;;
79361;SDS011;68830;47.566;19.012;2023-04-24T12:38:59;0.90;;;0.90;;
79361;SDS011;68830;47.566;19.012;2023-04-24T12:42:03;1.05;;;0.95;;
79361;SDS011;68830;47.566;19.012;2023-04-24T12:45:05;0.88;;;0.88;;
79361;SDS011;68830;47.566;19.012;2023-04-24T12:48:09;0.80;;;0.80;;
79361;SDS011;68830;47.566;19.012;2023-04-24T12:51:12;0.60;;;0.60;;
79361;SDS011;68830;47.566;19.012;2023-04-24T12:54:15;0.80;;;0.80;;
79361;SDS011;68830;47.566;19.012;2023-04-24T12:57:17;0.98;;;0.80;;
79361;SDS011;68830;47.566;19.012;2023-04-24T13:00:19;0.60;;;0.60;;
79361;SDS011;68830;47.566;19.012;2023-04-24T13:03:22;0.50;;;0.50;;
79361;SDS011;68830;47.566;19.012;2023-04-24T13:06:25;0.50;;;0.50;;
79361;SDS011;68830;47.566;19.012;2023-04-24T13:09:28;0.60;;;0.60;;
79361;SDS011;68830;47.566;19.012;2023-04-24T13:12:30;0.45;;;0.45;;
79361;SDS011;68830;47.566;19.012;2023-04-24T13:15:32;0.40;;;0.40;;
79361;SDS011;68830;47.566;19.012;2023-04-24T13:18:35;0.57;;;0.57;;
79361;SDS011;68830;47.566;19.012;2023-04-24T13:21:38;0.70;;;0.70;;
79361;SDS011;68830;47.566;19.012;2023-04-24T13:24:41;0.50;;;0.50;;
79361;SDS011;68830;47.566;19.012;2023-04-24T13:27:43;0.52;;;0.52;;
79361;SDS011;68830;47.566;19.012;2023-04-24T13:30:45;0.55;;;0.55;;
79361;SDS011;68830;47.566;19.012;2023-04-24T13:33:48;0.60;;;0.60;;
79361;SDS011;68830;47.566;19.012;2023-04-24T13:36:52;0.60;;;0.60;;
79361;SDS011;68830;47.566;19.012;2023-04-24T13:39:55;0.57;;;0.57;;
79361;SDS011;68830;47.566;19.012;2023-04-24T13:42:57;0.40;;;0.40;;
79361;SDS011;68830;47.566;19.012;2023-04-24T13:45:59;0.55;;;0.38;;
79361;SDS011;68830;47.566;19.012;2023-04-24T13:49:04;0.28;;;0.28;;
79361;SDS011;68830;47.566;19.012;2023-04-24T13:52:08;0.22;;;0.22;;
79361;SDS011;68830;47.566;19.012;2023-04-24T13:55:11;0.68;;;0.40;;
79361;SDS011;68830;47.566;19.012;2023-04-24T13:58:13;1.08;;;0.60;;
79361;SDS011;68830;47.566;19.012;2023-04-24T14:01:16;0.32;;;0.32;;
79361;SDS011;68830;47.566;19.012;2023-04-24T14:04:18;0.50;;;0.50;;
79361;SDS011;68830;47.566;19.012;2023-04-24T14:07:22;1.02;;;0.75;;
79361;SDS011;68830;47.566;19.012;2023-04-24T14:10:24;0.70;;;0.70;;
79361;SDS011;68830;47.566;19.012;2023-04-24T14:13:38;0.55;;;0.55;;
79361;SDS011;68830;47.566;19.012;2023-04-24T14:16:42;0.60;;;0.60;;
79361;SDS011;68830;47.566;19.012;2023-04-24T14:19:44;0.77;;;0.77;;
79361;SDS011;68830;47.566;19.012;2023-04-24T14:22:46;0.75;;;0.75;;
79361;SDS011;68830;47.566;19.012;2023-04-24T14:25:48;0.85;;;0.85;;
79361;SDS011;68830;47.566;19.012;2023-04-24T14:28:54;0.90;;;0.90;;
79361;SDS011;68830;47.566;19.012;2023-04-24T14:32:14;1.15;;;1.05;;
79361;SDS011;68830;47.566;19.012;2023-04-24T14:35:16;0.85;;;0.85;;
79361;SDS011;68830;47.566;19.012;2023-04-24T14:38:18;0.73;;;0.73;;
79361;SDS011;68830;47.566;19.012;2023-04-24T14:41:20;0.80;;;0.80;;
79361;SDS011;68830;47.566;19.012;2023-04-24T14:44:24;0.90;;;0.90;;
79361;SDS011;68830;47.566;19.012;2023-04-24T14:47:26;0.70;;;0.70;;
79361;SDS011;68830;47.566;19.012;2023-04-24T14:50:28;0.70;;;0.70;;
79361;SDS011;68830;47.566;19.012;2023-04-24T14:53:30;0.85;;;0.85;;
79361;SDS011;68830;47.566;19.012;2023-04-24T14:56:32;0.75;;;0.75;;
79361;SDS011;68830;47.566;19.012;2023-04-24T14:59:36;0.73;;;0.73;;
79361;SDS011;68830;47.566;19.012;2023-04-24T15:02:38;0.60;;;0.60;;
79361;SDS011;68830;47.566;19.012;2023-04-24T15:05:43;0.52;;;0.52;;
79361;SDS011;68830;47.566;19.012;2023-04-24T15:08:45;0.47;;;0.47;;
79361;SDS011;68830;47.566;19.012;2023-04-24T15:11:50;0.45;;;0.45;;
79361;SDS011;68830;47.566;19.012;2023-04-24T15:14:54;0.50;;;0.50;;
79361;SDS011;68830;47.566;19.012;2023-04-24T15:17:56;0.50;;;0.50;;
79361;SDS011;68830;47.566;19.012;2023-04-24T15:20:58;0.57;;;0.57;;
79361;SDS011;68830;47.566;19.012;2023-04-24T15:24:00;0.40;;;0.40;;
79361;SDS011;68830;47.566;19.012;2023-04-24T15:27:02;0.60;;;0.60;;
79361;SDS011;68830;47.566;19.012;2023-04-24T15:30:06;0.47;;;0.47;;
79361;SDS011;68830;47.566;19.012;2023-04-24T15:33:09;0.60;;;0.60;;
79361;SDS011;68830;47.566;19.012;2023-04-24T15:36:11;0.50;;;0.50;;
79361;SDS011;68830;47.566;19.012;2023-04-24T15:39:13;0.40;;;0.40;;
79361;SDS011;68830;47.566;19.012;2023-04-24T15:42:15;0.47;;;0.47;;
79361;SDS011;68830;47.566;19.012;2023-04-24T15:45:19;0.30;;;0.30;;
79361;SDS011;68830;47.566;19.012;2023-04-24T15:48:21;0.30;;;0.30;;
79361;SDS011;68830;47.566;19.012;2023-04-24T15:51:23;0.50;;;0.50;;
79361;SDS011;68830;47.566;19.012;2023-04-24T15:54:24;0.45;;;0.45;;
79361;SDS011;68830;47.566;19.012;2023-04-24T15:57:26;1.15;;;0.75;;
79361;SDS011;68830;47.566;19.012;2023-04-24T16:00:30;0.30;;;0.30;;
79361;SDS011;68830;47.566;19.012;2023-04-24T16:03:34;0.30;;;0.30;;
79361;SDS011;68830;47.566;19.012;2023-04-24T16:06:37;0.50;;;0.50;;
79361;SDS011;68830;47.566;19.012;2023-04-24T16:09:39;0.30;;;0.30;;
79361;SDS011;68830;47.566;19.012;2023-04-24T16:12:41;0.55;;;0.55;;
79361;SDS011;68830;47.566;19.012;2023-04-24T16:15:45;0.28;;;0.28;;
79361;SDS011;68830;47.566;19.012;2023-04-24T16:18:48;0.40;;;0.40;;
79361;SDS011;68830;47.566;19.012;2023-04-24T16:21:51;0.47;;;0.47;;
79361;SDS011;68830;47.566;19.012;2023-04-24T16:24:56;0.43;;;0.43;;
79361;SDS011;68830;47.566;19.012;2023-04-24T16:27:59;0.32;;;0.32;;
79361;SDS011;68830;47.566;19.012;2023-04-24T16:31:02;0.30;;;0.30;;
79361;SDS011;68830;47.566;19.012;2023-04-24T16:34:04;0.17;;;0.17;;
79361;SDS011;68830;47.566;19.012;2023-04-24T16:37:06;0.50;;;0.50;;
79361;SDS011;68830;47.566;19.012;2023-04-24T16:40:09;0.30;;;0.30;;
79361;SDS011;68830;47.566;19.012;2023-04-24T16:43:11;0.40;;;0.40;;
79361;SDS011;68830;47.566;19.012;2023-04-24T16:46:15;0.43;;;0.43;;
79361;SDS011;68830;47.566;19.012;2023-04-24T16:49:17;0.40;;;0.40;;
79361;SDS011;68830;47.566;19.012;2023-04-24T16:52:19;0.30;;;0.30;;
79361;SDS011;68830;47.566;19.012;2023-04-24T16:55:23;0.50;;;0.50;;
79361;SDS011;68830;47.566;19.012;2023-04-24T16:58:26;0.30;;;0.30;;
79361;SDS011;68830;47.566;19.012;2023-04-24T17:01:29;0.35;;;0.35;;
79361;SDS011;68830;47.566;19.012;2023-04-24T17:04:31;0.25;;;0.25;;
79361;SDS011;68830;47.566;19.012;2023-04-24T17:07:36;0.32;;;0.32;;
79361;SDS011;68830;47.566;19.012;2023-04-24T17:10:42;0.82;;;0.52;;
79361;SDS011;68830;47.566;19.012;2023-04-24T17:13:45;0.30;;;0.30;;
79361;SDS011;68830;47.566;19.012;2023-04-24T17:16:48;0.20;;;0.20;;
79361;SDS011;68830;47.566;19.012;2023-04-24T17:19:51;0.38;;;0.38;;
79361;SDS011;68830;47.566;19.012;2023-04-24T17:22:53;0.30;;;0.30;;
79361;SDS011;68830;47.566;19.012;2023-04-24T17:25:55;0.30;;;0.30;;
79361;SDS011;68830;47.566;19.012;2023-04-24T17:28:57;0.20;;;0.20;;
79361;SDS011;68830;47.566;19.012;2023-04-24T17:32:01;0.13;;;0.13;;
79361;SDS011;68830;47.566;19.012;2023-04-24T17:35:04;0.25;;;0.25;;
79361;SDS011;68830;47.566;19.012;2023-04-24T17:38:08;0.40;;;0.40;;
79361;SDS011;68830;47.566;19.012;2023-04-24T17:41:11;0.30;;;0.30;;
79361;SDS011;68830;47.566;19.012;2023-04-24T17:44:17;0.20;;;0.20;;
79361;SDS011;68830;47.566;19.012;2023-04-24T17:47:20;0.20;;;0.20;;
79361;SDS011;68830;47.566;19.012;2023-04-24T17:50:23;0.20;;;0.20;;
79361;SDS011;68830;47.566;19.012;2023-04-24T17:53:25;0.20;;;0.20;;
79361;SDS011;68830;47.566;19.012;2023-04-24T17:56:27;0.30;;;0.30;;
79361;SDS011;68830;47.566;19.012;2023-04-24T17:59:30;0.25;;;0.25;;
79361;SDS011;68830;47.566;19.012;2023-04-24T18:02:34;0.13;;;0.13;;
79361;SDS011;68830;47.566;19.012;2023-04-24T18:05:37;0.30;;;0.30;;
79361;SDS011;68830;47.566;19.012;2023-04-24T18:08:39;0.15;;;0.15;;
79361;SDS011;68830;47.566;19.012;2023-04-24T18:11:45;0.20;;;0.20;;